M/T Goviken — 9HA2718 — position and weather

sailwx.info

Track history (hours):
 
Tides and Currents Weather Stations Pressure Air Temp Water Temp Dewpoint Dewpoint Depression Visibility Wind Speed Wind Dir Waves Ship Positions

M/T Goviken

Last reported at 2017-Mar-18 14:15 UTC. Time now 2017-Mar-25 15:39 UTC.
Position N 41°41' W 008°50'.

Length 88 m; draft 5.5 m.

Type: Ship (hazmat cat C). MMSI: 215389000.

Date/timePositionNaut miles runAvg speedWind from/ knotsBaromVisibWave heightAir tempDewpointWater temp
2017-Mar-18 14:15N 41°41' W 008°50'0 0.0
2017-Mar-18 07:33N 41°41' W 008°50'  
2017-Mar-11 12:33N 39°33' W 009°51'7 6.9
2017-Mar-11 11:31N 39°26' W 009°51'6 6.5
2017-Mar-11 10:33N 39°19' W 009°52'7 6.6
2017-Mar-11 09:33N 39°13' W 009°51'7 6.7
2017-Mar-11 08:33N 39°06' W 009°51'7 6.7
2017-Mar-11 07:33N 38°59' W 009°51'7 6.6
2017-Mar-11 06:33N 38°53' W 009°51'7 6.6
2017-Mar-11 05:33N 38°46' W 009°52'6 6.4
2017-Mar-11 04:33N 38°40' W 009°50'7 6.6
2017-Mar-11 03:33N 38°33' W 009°49'7 6.7
2017-Mar-11 02:33N 38°27' W 009°47'7 6.6
2017-Mar-11 01:33N 38°20' W 009°45'7 6.5
2017-Mar-11 00:33N 38°14' W 009°43'7 6.7
2017-Mar-10 23:33N 38°07' W 009°41'7 6.9
2017-Mar-10 22:33N 38°01' W 009°39'7 6.8
2017-Mar-10 21:33N 37°54' W 009°37'7 6.8
2017-Mar-10 20:33N 37°47' W 009°35'7 6.8
2017-Mar-10 19:33N 37°41' W 009°33'7 6.7
2017-Mar-10 18:33N 37°34' W 009°31'7 6.8
2017-Mar-10 17:33N 37°28' W 009°29'14 6.9
2017-Mar-10 15:33N 37°14' W 009°25'7 6.9
2017-Mar-10 14:33N 37°08' W 009°23'7 6.9
2017-Mar-10 13:33N 37°01' W 009°21'7 6.9
2017-Mar-10 12:33N 36°54' W 009°19'7 6.8
2017-Mar-10 11:33N 36°49' W 009°14'7 6.9
2017-Mar-10 10:33N 36°44' W 009°08'7 6.8
2017-Mar-10 09:33N 36°42' W 008°60'7 6.7
2017-Mar-10 08:33N 36°42' W 008°51'7 6.7
2017-Mar-10 07:33N 36°42' W 008°43'7 6.7
2017-Mar-10 06:33N 36°42' W 008°34'7 6.6
2017-Mar-10 05:32N 36°42' W 008°26'6 6.5
2017-Mar-10 04:33N 36°42' W 008°18'7 6.6
2017-Mar-10 03:33N 36°42' W 008°10'7 6.7
2017-Mar-10 02:30N 36°42' W 008°01'6 6.8
2017-Mar-10 01:33N 36°42' W 007°53'  
Track history (hours):
 
Tides and Currents Weather Stations Pressure Air Temp Water Temp Dewpoint Dewpoint Depression Visibility Wind Speed Wind Dir Waves Ship Positions

M/T Goviken

Last reported at 2017-Mar-18 14:15 UTC. Time now 2017-Mar-25 15:39 UTC.
Position N 41°41' W 008°50'.

Length 88 m; draft 5.5 m.

Type: Ship (hazmat cat C). MMSI: 215389000.

Date/timePositionNaut miles runAvg speedWind from/ knotsBaromVisibWave heightAir tempDewpointWater temp
2017-Mar-18 14:15N 41°41' W 008°50'0 0.0
2017-Mar-18 07:33N 41°41' W 008°50'  
2017-Mar-11 12:33N 39°33' W 009°51'7 6.9
2017-Mar-11 11:31N 39°26' W 009°51'6 6.5
2017-Mar-11 10:33N 39°19' W 009°52'7 6.6
2017-Mar-11 09:33N 39°13' W 009°51'7 6.7
2017-Mar-11 08:33N 39°06' W 009°51'7 6.7
2017-Mar-11 07:33N 38°59' W 009°51'7 6.6
2017-Mar-11 06:33N 38°53' W 009°51'7 6.6
2017-Mar-11 05:33N 38°46' W 009°52'6 6.4
2017-Mar-11 04:33N 38°40' W 009°50'7 6.6
2017-Mar-11 03:33N 38°33' W 009°49'7 6.7
2017-Mar-11 02:33N 38°27' W 009°47'7 6.6
2017-Mar-11 01:33N 38°20' W 009°45'7 6.5
2017-Mar-11 00:33N 38°14' W 009°43'7 6.7
2017-Mar-10 23:33N 38°07' W 009°41'7 6.9
2017-Mar-10 22:33N 38°01' W 009°39'7 6.8
2017-Mar-10 21:33N 37°54' W 009°37'7 6.8
2017-Mar-10 20:33N 37°47' W 009°35'7 6.8
2017-Mar-10 19:33N 37°41' W 009°33'7 6.7
2017-Mar-10 18:33N 37°34' W 009°31'7 6.8
2017-Mar-10 17:33N 37°28' W 009°29'14 6.9
2017-Mar-10 15:33N 37°14' W 009°25'7 6.9
2017-Mar-10 14:33N 37°08' W 009°23'7 6.9
2017-Mar-10 13:33N 37°01' W 009°21'7 6.9
2017-Mar-10 12:33N 36°54' W 009°19'7 6.8
2017-Mar-10 11:33N 36°49' W 009°14'7 6.9
2017-Mar-10 10:33N 36°44' W 009°08'7 6.8
2017-Mar-10 09:33N 36°42' W 008°60'7 6.7
2017-Mar-10 08:33N 36°42' W 008°51'7 6.7
2017-Mar-10 07:33N 36°42' W 008°43'7 6.7
2017-Mar-10 06:33N 36°42' W 008°34'7 6.6
2017-Mar-10 05:32N 36°42' W 008°26'6 6.5
2017-Mar-10 04:33N 36°42' W 008°18'7 6.6
2017-Mar-10 03:33N 36°42' W 008°10'7 6.7
2017-Mar-10 02:30N 36°42' W 008°01'6 6.8
2017-Mar-10 01:33N 36°42' W 007°53'  

Dump ship's entire track history